createdAt,value
2022-12-11T00:00:04.693Z,163.05
2022-12-11T00:03:24.028Z,450.80
2022-12-11T00:04:26.548Z,141.63
2022-12-11T00:05:28.435Z,250.67
2022-12-11T00:06:30.385Z,294.03
2022-12-11T00:07:32.463Z,293.89
2022-12-11T00:08:34.919Z,247.22
2022-12-11T00:09:37.241Z,270.63
2022-12-11T00:10:39.224Z,280.21
2022-12-11T00:11:41.120Z,289.47
2022-12-11T00:12:42.980Z,356.73
2022-12-11T00:13:44.852Z,492.28
2022-12-11T00:14:46.782Z,470.31
2022-12-11T00:15:48.654Z,394.19
2022-12-11T00:16:50.653Z,365.13
2022-12-11T00:17:52.606Z,435.01
2022-12-11T00:18:55.017Z,327.53
2022-12-11T00:19:57.609Z,328.31
2022-12-11T00:21:06.422Z,253.90
2022-12-11T00:22:08.885Z,361.50
2022-12-11T00:23:11.395Z,378.07
2022-12-11T00:24:13.378Z,323.69
2022-12-11T00:25:15.375Z,276.88
2022-12-11T00:26:17.636Z,302.45
2022-12-11T00:27:19.569Z,402.03
2022-12-11T00:28:22.523Z,413.55
2022-12-11T00:29:24.431Z,206.51
2022-12-11T00:30:26.386Z,245.91
2022-12-11T00:31:28.997Z,334.88
2022-12-11T00:32:34.899Z,318.78
2022-12-11T00:33:35.083Z,350.48
2022-12-11T00:34:37.111Z,250.25
2022-12-11T00:35:42.292Z,250.49
2022-12-11T00:36:45.177Z,265.78
2022-12-11T00:37:47.144Z,307.00
2022-12-11T00:38:49.612Z,256.10
2022-12-11T00:39:51.493Z,277.43
2022-12-11T00:40:58.928Z,313.48
2022-12-11T00:42:00.848Z,204.84
2022-12-11T00:43:03.289Z,325.39
2022-12-11T00:44:05.351Z,223.22
2022-12-11T00:45:10.608Z,275.41
2022-12-11T00:46:13.089Z,198.94
2022-12-11T00:47:15.036Z,228.03
2022-12-11T00:48:17.938Z,263.73
2022-12-11T00:49:19.824Z,179.87
2022-12-11T00:50:22.328Z,369.79
2022-12-11T00:51:24.353Z,166.55
2022-12-11T00:52:26.215Z,159.23
2022-12-11T00:53:28.310Z,144.37
2022-12-11T00:54:30.214Z,125.53
2022-12-11T00:55:38.015Z,154.02
2022-12-11T00:56:40.024Z,168.58
2022-12-11T00:57:42.023Z,177.83
2022-12-11T00:58:45.587Z,216.85
2022-12-11T00:59:47.523Z,164.14
2022-12-11T01:00:50.318Z,145.89
2022-12-11T01:01:52.200Z,233.03
2022-12-11T01:02:54.157Z,187.34
2022-12-11T01:03:56.248Z,191.29
2022-12-11T01:04:58.112Z,374.44
2022-12-11T01:05:59.983Z,437.22
2022-12-11T01:07:01.975Z,323.20
2022-12-11T01:08:04.502Z,140.49
2022-12-11T01:09:06.585Z,123.45
2022-12-11T01:12:29.769Z,106.41
2022-12-11T01:13:31.771Z,100.42
2022-12-11T01:14:33.644Z,118.31
2022-12-11T01:15:42.151Z,117.71
2022-12-11T01:16:45.854Z,101.72
2022-12-11T01:17:50.814Z,106.04
2022-12-11T01:18:52.727Z,94.25
2022-12-11T01:19:54.923Z,106.20
2022-12-11T01:20:56.892Z,102.19
2022-12-11T01:21:58.780Z,108.26
2022-12-11T01:23:00.655Z,106.79
2022-12-11T01:24:03.079Z,127.36
2022-12-11T01:25:06.033Z,110.97
2022-12-11T01:26:13.362Z,121.97
2022-12-11T01:27:15.371Z,134.37
2022-12-11T01:28:17.236Z,150.35
2022-12-11T01:29:19.128Z,140.87
2022-12-11T01:30:23.651Z,136.44
2022-12-11T01:31:25.553Z,129.01
2022-12-11T01:32:28.228Z,133.32
2022-12-11T01:33:30.151Z,141.62
2022-12-11T01:34:33.568Z,137.32
2022-12-11T01:35:35.500Z,107.22
2022-12-11T01:36:37.460Z,102.36
2022-12-11T01:37:40.383Z,102.05
2022-12-11T01:38:42.254Z,96.94
2022-12-11T01:39:44.119Z,113.31
2022-12-11T01:40:49.382Z,91.05
2022-12-11T01:41:57.097Z,103.99
2022-12-11T01:42:59.011Z,108.22
2022-12-11T01:44:16.914Z,95.63
2022-12-11T01:45:32.050Z,80.24
2022-12-11T01:46:36.491Z,97.86
2022-12-11T01:47:38.420Z,73.24
2022-12-11T01:48:42.398Z,81.59
2022-12-11T01:49:44.190Z,53.62
2022-12-11T01:50:55.757Z,87.37
2022-12-11T01:53:04.300Z,114.95
2022-12-11T01:54:10.053Z,68.28
2022-12-11T01:55:12.955Z,72.21
2022-12-11T01:56:16.280Z,85.26
2022-12-11T01:57:18.852Z,60.89
2022-12-11T01:58:23.804Z,74.75
2022-12-11T01:59:28.858Z,68.62
2022-12-11T02:00:31.753Z,82.41
2022-12-11T02:01:46.678Z,74.66
2022-12-11T02:02:48.674Z,43.39
2022-12-11T02:03:51.782Z,45.00
2022-12-11T02:04:53.841Z,55.03
2022-12-11T02:06:00.941Z,74.95
2022-12-11T02:07:03.417Z,42.97
2022-12-11T02:08:07.100Z,55.75
2022-12-11T02:09:12.981Z,56.46
2022-12-11T02:10:15.804Z,44.01
2022-12-11T02:11:21.428Z,54.39
2022-12-11T02:13:51.907Z,45.11
2022-12-11T02:15:03.623Z,37.88
2022-12-11T02:16:21.601Z,37.78
2022-12-11T06:16:45.181Z,44.08
2022-12-11T06:17:47.150Z,48.35
2022-12-11T06:18:49.017Z,46.36
2022-12-11T06:19:50.890Z,55.30
2022-12-11T06:20:53.648Z,60.21
2022-12-11T06:21:55.547Z,51.56
2022-12-11T06:22:57.406Z,51.19
2022-12-11T06:24:02.487Z,51.59
2022-12-11T06:25:05.681Z,61.95
2022-12-11T06:26:09.771Z,62.59
2022-12-11T06:27:11.768Z,48.89
2022-12-11T06:28:14.589Z,44.31
2022-12-11T06:29:16.452Z,52.52
2022-12-11T06:30:18.774Z,37.79
2022-12-11T06:31:20.662Z,33.18
2022-12-11T06:32:22.795Z,59.67
2022-12-11T06:33:24.679Z,57.61
2022-12-11T06:34:27.551Z,44.07
2022-12-11T06:35:29.433Z,56.31
2022-12-11T06:36:31.413Z,90.45
2022-12-11T06:37:34.972Z,51.21
2022-12-11T06:38:37.497Z,35.46
2022-12-11T06:39:39.361Z,59.52
2022-12-11T06:40:41.332Z,58.40
2022-12-11T06:41:43.239Z,40.12
2022-12-11T06:42:45.097Z,44.58
2022-12-11T06:43:48.285Z,34.90
2022-12-11T06:44:50.742Z,38.38
2022-12-11T06:45:52.840Z,36.03
2022-12-11T06:46:54.889Z,36.78
2022-12-11T06:47:58.041Z,42.80
2022-12-11T06:48:59.910Z,43.41
2022-12-11T06:50:02.202Z,42.47
2022-12-11T06:51:12.905Z,46.79
2022-12-11T06:52:18.392Z,44.54
2022-12-11T06:53:19.480Z,61.46
2022-12-11T06:54:25.994Z,46.42
2022-12-11T06:55:28.906Z,34.49
2022-12-11T06:56:32.901Z,36.51
2022-12-11T06:57:35.066Z,40.39
2022-12-11T06:58:39.274Z,48.38
2022-12-11T06:59:41.590Z,49.01
2022-12-11T07:00:43.841Z,48.89
2022-12-11T07:01:45.856Z,47.01
2022-12-11T07:02:50.317Z,36.07
2022-12-11T07:03:54.123Z,44.42
2022-12-11T07:04:56.224Z,54.77
2022-12-11T07:06:02.538Z,53.90
2022-12-11T07:07:04.552Z,69.99
2022-12-11T07:08:06.650Z,113.44
2022-12-11T07:09:08.769Z,31.51
2022-12-11T07:10:11.224Z,65.83
2022-12-11T07:11:15.763Z,66.99
2022-12-11T07:12:17.905Z,39.76
2022-12-11T07:13:19.796Z,49.44
2022-12-11T07:14:21.691Z,44.51
2022-12-11T07:15:23.685Z,38.40
2022-12-11T07:16:27.385Z,30.00
2022-12-11T07:17:29.837Z,39.58
2022-12-11T07:18:31.722Z,40.45
2022-12-11T07:19:33.783Z,55.41
2022-12-11T07:20:39.152Z,44.04
2022-12-11T07:21:41.339Z,43.30
2022-12-11T07:22:46.634Z,45.27
2022-12-11T07:23:48.766Z,51.39
2022-12-11T07:24:50.892Z,43.21
2022-12-11T07:25:52.783Z,47.67
2022-12-11T07:26:54.862Z,53.94
2022-12-11T07:27:57.811Z,57.37
2022-12-11T07:29:00.039Z,61.33
2022-12-11T07:30:02.134Z,64.29
2022-12-11T07:32:16.731Z,81.43
2022-12-11T07:33:18.709Z,57.15
2022-12-11T07:34:20.574Z,65.03
2022-12-11T07:35:24.736Z,57.72
2022-12-11T07:36:28.110Z,45.75
2022-12-11T07:37:29.999Z,59.49
2022-12-11T07:38:32.415Z,84.41
2022-12-11T07:39:34.508Z,53.95
2022-12-11T07:40:36.471Z,44.25
2022-12-11T07:41:39.641Z,114.37
2022-12-11T07:42:46.151Z,58.48
2022-12-11T07:43:45.873Z,77.98
2022-12-11T07:44:47.765Z,49.79
2022-12-11T07:45:50.404Z,72.73
2022-12-11T07:46:52.653Z,70.60
2022-12-11T07:47:54.565Z,54.19
2022-12-11T07:48:56.653Z,52.60
2022-12-11T07:49:58.675Z,56.83
2022-12-11T07:51:12.877Z,63.76
2022-12-11T07:52:14.907Z,45.37
2022-12-11T07:53:19.921Z,55.30
2022-12-11T07:54:21.865Z,52.34
2022-12-11T07:55:23.749Z,57.19
2022-12-11T07:56:27.183Z,52.97
2022-12-11T07:57:29.089Z,82.16
2022-12-11T07:58:35.314Z,48.25
2022-12-11T07:59:39.097Z,70.77
2022-12-11T08:00:45.024Z,56.83
2022-12-11T08:01:47.208Z,47.47
2022-12-11T08:02:49.235Z,62.19
2022-12-11T08:03:52.168Z,53.55
2022-12-11T08:04:54.057Z,60.39
2022-12-11T08:05:56.422Z,48.74
2022-12-11T08:06:58.483Z,49.79
2022-12-11T08:08:00.410Z,64.19
2022-12-11T08:09:06.753Z,58.96
2022-12-11T08:10:09.659Z,53.68
2022-12-11T08:11:14.030Z,64.67
2022-12-11T08:12:15.970Z,72.62
2022-12-11T08:13:17.800Z,66.57
2022-12-11T08:14:20.846Z,52.91
2022-12-11T08:15:22.801Z,61.37
2022-12-11T08:16:25.919Z,64.99
2022-12-11T08:17:30.971Z,97.81
2022-12-11T08:18:35.798Z,53.68
2022-12-11T08:19:37.689Z,72.82
2022-12-11T08:20:39.970Z,62.93
2022-12-11T08:21:41.879Z,33.31
2022-12-11T08:22:46.041Z,55.84
2022-12-11T08:23:49.635Z,68.78
2022-12-11T08:24:51.829Z,69.88
2022-12-11T08:25:53.721Z,68.63
2022-12-11T08:26:55.940Z,55.59
2022-12-11T08:27:57.854Z,62.54
2022-12-11T08:29:01.016Z,65.18
2022-12-11T08:30:03.652Z,59.11
2022-12-11T08:31:08.191Z,67.29
2022-12-11T08:32:12.525Z,61.74
2022-12-11T08:33:16.399Z,70.91
2022-12-11T08:34:18.319Z,93.21
2022-12-11T08:35:23.339Z,99.90
2022-12-11T08:36:25.924Z,99.88
2022-12-11T08:37:27.874Z,104.17
2022-12-11T08:38:29.815Z,94.60
2022-12-11T08:39:31.765Z,93.72
2022-12-11T08:40:40.012Z,96.61
2022-12-11T08:41:42.008Z,64.42
2022-12-11T08:42:45.153Z,90.18
2022-12-11T08:43:50.075Z,94.96
2022-12-11T08:44:52.022Z,92.47
2022-12-11T08:45:53.927Z,92.74
2022-12-11T08:46:57.140Z,62.75
2022-12-11T08:47:59.590Z,113.20
2022-12-11T08:49:01.484Z,84.59
2022-12-11T08:50:04.594Z,104.41
2022-12-11T08:51:09.725Z,57.03
2022-12-11T08:52:12.104Z,84.92
2022-12-11T08:53:13.982Z,72.65
2022-12-11T08:54:15.824Z,131.79
2022-12-11T08:55:17.707Z,99.48
2022-12-11T08:56:20.414Z,78.75
2022-12-11T08:57:22.439Z,73.20
2022-12-11T08:58:26.636Z,140.01
2022-12-11T08:59:28.998Z,87.34
2022-12-11T09:00:31.168Z,62.27
2022-12-11T09:01:33.284Z,111.93
2022-12-11T09:02:35.246Z,84.61
2022-12-11T09:03:39.245Z,90.96
2022-12-11T09:04:41.115Z,84.89
2022-12-11T09:05:43.024Z,107.82
2022-12-11T09:06:45.313Z,100.22
2022-12-11T09:07:48.626Z,110.70
2022-12-11T09:08:53.311Z,93.45
2022-12-11T09:09:55.613Z,126.72
2022-12-11T09:11:07.205Z,122.44
2022-12-11T09:12:10.202Z,113.95
2022-12-11T09:13:13.176Z,121.94
2022-12-11T09:14:15.301Z,111.91
2022-12-11T09:15:17.287Z,118.23
2022-12-11T09:16:22.538Z,69.79
2022-12-11T09:17:24.738Z,79.06
2022-12-11T09:18:26.706Z,109.82
2022-12-11T09:19:32.240Z,135.55
2022-12-11T09:20:32.599Z,118.55
2022-12-11T09:21:34.584Z,109.93
2022-12-11T09:22:38.383Z,138.72
2022-12-11T09:23:41.174Z,96.30
2022-12-11T09:24:43.166Z,88.76
2022-12-11T09:25:45.036Z,113.69
2022-12-11T09:26:47.369Z,91.20
2022-12-11T09:27:49.268Z,136.68
2022-12-11T09:28:51.678Z,129.78
2022-12-11T09:29:53.549Z,115.91
2022-12-11T09:30:56.232Z,127.63
2022-12-11T09:31:58.392Z,91.96
2022-12-11T09:33:00.269Z,170.68
2022-12-11T09:34:05.648Z,147.93
2022-12-11T09:35:09.269Z,117.82
2022-12-11T09:36:11.885Z,154.34
2022-12-11T09:37:13.785Z,149.27
2022-12-11T09:38:15.649Z,168.43
2022-12-11T09:39:17.972Z,121.92
2022-12-11T09:40:20.321Z,155.17
2022-12-11T09:41:37.931Z,121.53
2022-12-11T09:43:04.279Z,175.93
2022-12-11T09:44:18.496Z,176.86
2022-12-11T09:45:20.728Z,167.80
2022-12-11T09:46:24.891Z,128.22
2022-12-11T09:47:39.791Z,110.15
2022-12-11T09:48:47.851Z,119.44
2022-12-11T09:49:54.076Z,175.77
2022-12-11T09:50:57.155Z,135.26
2022-12-11T09:52:19.846Z,190.17
2022-12-11T09:53:33.762Z,172.47
2022-12-11T09:54:33.115Z,173.13
2022-12-11T09:56:54.784Z,268.45
2022-12-11T09:58:16.152Z,215.71
2022-12-11T09:59:21.834Z,158.78
2022-12-11T10:00:33.709Z,230.82
2022-12-11T10:01:51.816Z,130.90
2022-12-11T10:03:03.897Z,135.88
2022-12-11T10:04:15.558Z,102.24
2022-12-11T10:05:26.609Z,96.42
2022-12-11T10:06:44.553Z,97.91
2022-12-11T10:07:57.414Z,113.63
2022-12-11T10:09:18.463Z,133.49
2022-12-11T10:10:45.623Z,130.69
2022-12-11T10:12:03.958Z,139.57
2022-12-11T10:13:26.481Z,115.93
2022-12-11T10:14:34.928Z,148.38
2022-12-11T10:15:49.780Z,125.93
2022-12-11T10:16:55.588Z,141.92
2022-12-11T10:18:04.677Z,141.78
2022-12-11T10:19:04.046Z,120.33
2022-12-11T10:20:31.171Z,108.04
2022-12-11T10:21:39.116Z,120.90
2022-12-11T10:22:41.197Z,140.98
2022-12-11T10:24:02.026Z,157.42
2022-12-11T10:25:11.120Z,140.28
2022-12-11T10:26:15.117Z,130.91
2022-12-11T10:27:20.276Z,132.96
2022-12-11T10:28:23.234Z,148.56
2022-12-11T10:29:25.279Z,135.22
2022-12-11T10:30:34.434Z,185.91
2022-12-11T10:32:12.905Z,240.95
2022-12-11T10:33:21.495Z,146.24
2022-12-11T10:34:29.997Z,170.76
2022-12-11T10:35:44.825Z,177.19
2022-12-11T10:36:47.662Z,194.63
2022-12-11T10:37:50.438Z,182.31
2022-12-11T14:12:05.990Z,24.61
2022-12-11T14:13:17.528Z,27.37
2022-12-11T14:14:29.459Z,24.52
2022-12-11T14:15:34.462Z,25.57
2022-12-11T14:16:36.741Z,24.28
2022-12-11T14:17:43.959Z,26.21
2022-12-11T14:18:48.676Z,22.72
2022-12-11T14:19:51.883Z,23.78
2022-12-11T14:20:57.461Z,19.99
2022-12-11T14:22:02.871Z,20.93
2022-12-11T14:25:24.405Z,23.04
2022-12-11T14:26:29.652Z,22.58
2022-12-11T14:27:32.701Z,22.76
2022-12-11T14:28:40.363Z,23.52
2022-12-11T14:29:44.247Z,23.51
2022-12-11T14:30:51.412Z,24.38
2022-12-11T14:31:54.617Z,20.84
2022-12-11T14:32:59.668Z,23.49
2022-12-11T14:35:24.470Z,18.27
2022-12-11T14:36:28.654Z,20.43
2022-12-11T14:37:33.366Z,20.66
2022-12-11T14:38:39.180Z,16.43
2022-12-11T14:39:44.948Z,19.09
2022-12-11T14:40:51.057Z,19.09
2022-12-11T14:41:56.813Z,16.76
2022-12-11T14:43:02.492Z,17.13
2022-12-11T14:44:07.533Z,17.88
2022-12-11T14:45:22.543Z,17.11
2022-12-11T14:46:43.754Z,17.97
2022-12-11T14:47:47.269Z,16.48
2022-12-11T14:49:01.096Z,17.37
2022-12-11T14:50:09.233Z,14.10
2022-12-11T14:51:15.333Z,14.56
2022-12-11T14:52:21.055Z,18.36
2022-12-11T14:53:32.593Z,14.45
2022-12-11T14:54:41.120Z,15.24
2022-12-11T14:55:43.533Z,15.85
2022-12-11T14:56:46.703Z,14.61
2022-12-11T14:57:51.510Z,17.61
2022-12-11T15:00:25.081Z,16.61
2022-12-11T15:01:33.020Z,12.73
2022-12-11T15:02:37.322Z,12.74
2022-12-11T15:03:41.002Z,12.06
2022-12-11T15:04:42.927Z,14.56
2022-12-11T15:05:53.461Z,12.87
2022-12-11T15:06:57.915Z,12.59
2022-12-11T15:08:03.765Z,12.57
2022-12-11T15:09:23.588Z,12.28
2022-12-11T15:10:38.168Z,13.27
2022-12-11T15:11:40.583Z,13.79
2022-12-11T15:12:44.748Z,13.78
2022-12-11T15:13:58.651Z,12.92
2022-12-11T15:15:04.318Z,12.46
2022-12-11T15:16:07.425Z,13.32
2022-12-11T15:17:13.333Z,10.06
2022-12-11T15:18:25.456Z,11.58
2022-12-11T15:19:34.013Z,12.02
2022-12-11T15:20:37.333Z,10.74
2022-12-11T15:21:39.650Z,11.84
2022-12-11T15:22:43.139Z,10.99
2022-12-11T15:23:48.783Z,13.38
2022-12-11T15:24:54.245Z,10.98
2022-12-11T15:25:59.362Z,13.21
2022-12-11T15:27:01.768Z,12.30
2022-12-11T15:28:04.201Z,11.66
2022-12-11T15:29:24.805Z,12.77
2022-12-11T15:31:41.112Z,13.12
2022-12-11T15:32:43.197Z,13.52
2022-12-11T15:33:46.326Z,12.25
2022-12-11T15:34:59.276Z,13.94
2022-12-11T15:36:05.048Z,12.51
2022-12-11T15:37:25.728Z,12.33
2022-12-11T15:38:31.196Z,12.51
2022-12-11T15:39:33.211Z,14.36
2022-12-11T15:40:35.221Z,13.32
2022-12-11T15:41:39.165Z,13.79
2022-12-11T15:42:41.837Z,12.15
2022-12-11T15:43:46.082Z,11.13
2022-12-11T15:44:48.285Z,13.12
2022-12-11T15:45:50.373Z,11.65
2022-12-11T15:46:52.705Z,13.12
2022-12-11T15:47:55.019Z,11.01
2022-12-11T15:48:57.267Z,14.11
2022-12-11T15:50:14.677Z,10.55
2022-12-11T15:53:14.858Z,12.87
2022-12-11T15:54:16.804Z,11.33
2022-12-11T15:55:20.455Z,11.23
2022-12-11T15:56:24.694Z,11.99
2022-12-11T15:57:27.137Z,11.48
2022-12-11T15:58:29.620Z,12.40
2022-12-11T15:59:32.922Z,12.72
2022-12-11T16:00:35.646Z,12.41
2022-12-11T16:01:39.733Z,10.79
2022-12-11T16:02:42.252Z,12.49
2022-12-11T16:03:44.422Z,10.85
2022-12-11T16:04:46.632Z,10.62
2022-12-11T16:05:49.935Z,12.31
2022-12-11T16:06:52.060Z,13.08
2022-12-11T16:07:54.472Z,12.99
2022-12-11T16:08:56.649Z,10.23
2022-12-11T16:09:58.551Z,11.47
2022-12-11T16:11:02.561Z,9.83
2022-12-11T16:12:05.231Z,12.38
2022-12-11T16:13:07.133Z,10.44
2022-12-11T16:14:09.194Z,10.67
2022-12-11T16:15:15.298Z,10.75
2022-12-11T16:16:16.719Z,12.91
2022-12-11T16:17:19.090Z,10.65
2022-12-11T16:18:22.714Z,8.83
2022-12-11T16:19:24.774Z,8.33
2022-12-11T16:20:28.005Z,8.39
2022-12-11T16:21:30.047Z,9.03
2022-12-11T16:22:32.128Z,10.55
2022-12-11T16:23:34.103Z,8.48
2022-12-11T16:24:37.097Z,10.87
2022-12-11T16:25:41.221Z,7.06
2022-12-11T16:26:43.478Z,9.12
2022-12-11T16:27:45.378Z,8.03
2022-12-11T16:28:48.580Z,8.61
2022-12-11T16:30:11.232Z,8.11
2022-12-11T16:31:14.554Z,9.99
2022-12-11T16:32:18.703Z,9.42
2022-12-11T16:33:20.592Z,7.76
2022-12-11T16:34:26.188Z,6.91
2022-12-11T16:35:32.584Z,6.47
2022-12-11T16:36:36.415Z,7.60
2022-12-11T16:37:39.595Z,6.95
2022-12-11T16:38:51.395Z,9.17
2022-12-11T16:39:49.255Z,8.03
2022-12-11T16:41:01.515Z,6.34
2022-12-11T16:42:04.946Z,8.27
2022-12-11T16:43:06.839Z,6.56
2022-12-11T16:44:08.908Z,7.66
2022-12-11T16:45:14.658Z,11.69
2022-12-11T16:46:22.143Z,9.74
2022-12-11T16:47:24.282Z,8.04
2022-12-11T16:48:29.234Z,9.32
2022-12-11T16:49:31.206Z,8.62
2022-12-11T16:50:33.216Z,9.72
2022-12-11T16:51:36.502Z,9.34
2022-12-11T16:52:38.637Z,11.18
2022-12-11T16:53:40.583Z,9.53
2022-12-11T16:54:42.631Z,8.94
2022-12-11T16:55:47.701Z,9.96
2022-12-11T16:56:51.447Z,10.37
2022-12-11T16:57:53.764Z,9.38
2022-12-11T16:58:55.880Z,8.05
2022-12-11T16:59:58.569Z,8.59
2022-12-11T17:01:01.651Z,8.96
2022-12-11T17:02:04.223Z,8.63
2022-12-11T17:03:06.295Z,11.34
2022-12-11T17:04:10.933Z,8.31
2022-12-11T17:05:13.199Z,8.43
2022-12-11T17:06:17.862Z,8.98
2022-12-11T17:07:19.776Z,12.05
2022-12-11T17:08:22.794Z,11.89
2022-12-11T17:09:27.457Z,8.70
2022-12-11T17:10:29.588Z,10.75
2022-12-11T17:11:31.587Z,9.99
2022-12-11T17:12:33.711Z,10.38
2022-12-11T17:13:36.451Z,10.44
2022-12-11T17:14:38.640Z,11.20
2022-12-11T17:15:42.392Z,10.90
2022-12-11T17:16:44.908Z,10.37
2022-12-11T17:17:46.964Z,13.21
2022-12-11T17:18:48.941Z,12.67
2022-12-11T17:19:51.204Z,12.20
2022-12-11T17:20:54.440Z,11.81
2022-12-11T17:21:56.564Z,11.38
2022-12-11T17:22:58.451Z,11.18
2022-12-11T17:24:00.591Z,9.89
2022-12-11T17:25:02.959Z,11.42
2022-12-11T17:26:06.124Z,10.09
2022-12-11T17:27:08.036Z,15.09
2022-12-11T17:28:11.895Z,11.97
2022-12-11T17:29:13.923Z,13.15
2022-12-11T17:30:16.537Z,14.53
2022-12-11T17:31:19.648Z,14.95
2022-12-11T17:32:22.203Z,15.66
2022-12-11T17:33:24.243Z,16.90
2022-12-11T17:34:26.225Z,16.67
2022-12-11T17:35:28.450Z,16.42
2022-12-11T17:36:31.141Z,17.34
2022-12-11T17:37:33.005Z,16.30
2022-12-11T17:38:36.259Z,18.09
2022-12-11T17:39:38.276Z,17.37
2022-12-11T17:40:42.686Z,20.40
2022-12-11T17:41:45.159Z,22.99
2022-12-11T17:42:47.060Z,16.90
2022-12-11T17:43:51.148Z,18.85
2022-12-11T17:44:53.073Z,21.12
2022-12-11T17:45:55.087Z,17.43
2022-12-11T17:46:57.915Z,19.07
2022-12-11T17:48:01.205Z,18.01
2022-12-11T17:49:04.978Z,22.66
2022-12-11T17:50:08.549Z,18.36
2022-12-11T17:51:12.600Z,19.67
2022-12-11T17:52:16.970Z,23.75
2022-12-11T17:53:21.535Z,18.78
2022-12-11T17:54:23.765Z,20.67
2022-12-11T17:55:26.014Z,17.53
2022-12-11T17:56:28.705Z,21.00
2022-12-11T17:57:31.278Z,22.27
2022-12-11T22:00:22.223Z,12.82
2022-12-11T22:01:28.011Z,13.12
2022-12-11T22:02:30.141Z,13.81
2022-12-11T22:03:32.086Z,13.01
2022-12-11T22:04:34.167Z,14.91
2022-12-11T22:05:36.532Z,12.70
2022-12-11T22:06:39.295Z,12.84
2022-12-11T22:07:41.283Z,10.99
2022-12-11T22:08:43.757Z,11.80
2022-12-11T22:09:45.765Z,11.53
2022-12-11T22:10:48.363Z,9.37
2022-12-11T22:11:55.070Z,9.65
2022-12-11T22:12:56.082Z,11.45
2022-12-11T22:13:58.889Z,10.28
2022-12-11T22:15:00.882Z,10.43
2022-12-11T22:16:04.512Z,11.64
2022-12-11T22:17:06.420Z,9.58
2022-12-11T22:18:08.310Z,13.01
2022-12-11T22:19:10.668Z,10.63
2022-12-11T22:20:12.665Z,11.94
2022-12-11T22:21:15.928Z,10.73
2022-12-11T22:22:20.333Z,10.21
2022-12-11T22:23:23.248Z,9.90
2022-12-11T22:24:25.166Z,13.15
2022-12-11T22:25:27.041Z,10.49
2022-12-11T22:26:29.648Z,9.47
2022-12-11T22:27:31.542Z,8.92
2022-12-11T22:28:34.000Z,10.94
2022-12-11T22:29:36.014Z,11.21
2022-12-11T22:30:38.423Z,10.33
2022-12-11T22:31:40.496Z,12.61
2022-12-11T22:32:43.680Z,9.52
2022-12-11T22:33:46.163Z,12.13
2022-12-11T22:34:49.100Z,13.03
2022-12-11T22:35:57.905Z,12.53
2022-12-11T22:36:59.924Z,14.31
2022-12-11T22:38:02.050Z,20.89
2022-12-11T22:39:04.332Z,18.56
2022-12-11T22:40:07.645Z,19.41
2022-12-11T22:43:26.196Z,13.09
2022-12-11T22:44:28.065Z,15.41
2022-12-11T22:45:29.960Z,14.37
2022-12-11T22:46:32.075Z,14.96
2022-12-11T22:47:33.950Z,14.82
2022-12-11T22:48:35.845Z,11.45
2022-12-11T22:49:37.869Z,11.77
2022-12-11T22:50:40.660Z,13.51
2022-12-11T22:51:42.862Z,11.06
2022-12-11T22:52:44.753Z,12.83
2022-12-11T22:53:47.350Z,13.75
2022-12-11T22:54:49.236Z,11.38
2022-12-11T22:55:51.136Z,12.67
2022-12-11T22:56:53.467Z,13.14
2022-12-11T22:57:55.539Z,12.12
2022-12-11T22:58:58.139Z,12.82
2022-12-11T23:00:00.033Z,10.37
2022-12-11T23:01:03.217Z,8.95
2022-12-11T23:02:05.669Z,11.82
2022-12-11T23:03:07.882Z,9.65
2022-12-11T23:04:10.258Z,10.39
2022-12-11T23:05:13.015Z,10.77
2022-12-11T23:06:17.436Z,10.94
2022-12-11T23:07:19.538Z,10.56
2022-12-11T23:08:21.589Z,9.91
2022-12-11T23:09:25.038Z,7.15
2022-12-11T23:10:27.874Z,6.63
2022-12-11T23:11:33.365Z,5.68
2022-12-11T23:12:36.137Z,6.57
2022-12-11T23:13:38.289Z,7.59
2022-12-11T23:14:40.173Z,7.17
2022-12-11T23:15:42.330Z,6.24
2022-12-11T23:16:44.765Z,5.24
2022-12-11T23:17:46.985Z,6.51
2022-12-11T23:18:49.175Z,7.33
2022-12-11T23:19:51.179Z,9.01
2022-12-11T23:20:53.205Z,6.45
2022-12-11T23:21:55.086Z,6.41
2022-12-11T23:22:56.987Z,6.35
2022-12-11T23:23:59.475Z,5.87
2022-12-11T23:25:01.505Z,6.37
2022-12-11T23:26:05.630Z,5.93
2022-12-11T23:27:08.018Z,5.99
2022-12-11T23:28:09.925Z,6.31
2022-12-11T23:29:11.829Z,6.15
2022-12-11T23:30:13.950Z,6.31
2022-12-11T23:31:16.390Z,5.68
2022-12-11T23:32:18.630Z,6.34
2022-12-11T23:33:20.613Z,6.45
2022-12-11T23:34:23.778Z,5.33
2022-12-11T23:35:25.816Z,4.70
2022-12-11T23:36:30.761Z,5.23
2022-12-11T23:37:32.794Z,5.19
2022-12-11T23:38:35.074Z,5.79
2022-12-11T23:39:37.007Z,5.01
2022-12-11T23:40:39.246Z,4.61
2022-12-11T23:41:41.423Z,4.60
2022-12-11T23:42:43.376Z,5.51
2022-12-11T23:43:45.254Z,5.81
2022-12-11T23:44:48.941Z,6.15
2022-12-11T23:45:51.038Z,6.08
2022-12-11T23:46:53.930Z,6.85
2022-12-11T23:47:56.196Z,5.22
2022-12-11T23:48:58.090Z,5.12
2022-12-11T23:49:59.973Z,4.85
2022-12-11T23:51:04.665Z,5.10
2022-12-11T23:52:06.894Z,5.35
2022-12-11T23:53:09.050Z,8.48
2022-12-11T23:54:10.916Z,10.59
2022-12-11T23:55:13.423Z,9.10
2022-12-11T23:56:19.512Z,8.93
2022-12-11T23:57:21.550Z,7.79
2022-12-11T23:58:23.509Z,7.80
2022-12-11T23:59:27.668Z,7.48
